CES7866 KPHX-CYXY
Flight info
| Callsign | CES7866 |
|---|---|
| Flight time | 5h 2m |
| Altitude | 35000 |
| Route | BTY J92 LIDAT T274 OAL V105 YERIN J92 FMG J5 LKV J67 BTG V23 MALAY V287 OLM J54 TOU J523 YZT Q902 ANN T266 NEREE R2015 XADZY T266 YXY Q969 GOROV |
| Aircraft | B738/L-SDE3FGHIRWY/LB1 |
Departure
| Time | 2026-04-25 08:32 |
|---|---|
| Airport | Phoenix Sky Harbor International Airport (KPHX) |
Arrival
| Time | 2026-04-25 13:34 |
|---|---|
| Airport | Whitehorse / Erik Nielsen International Airport (CYXY) |
| Time | Latitude | Longitude | Altitude | Speed | Heading |
|---|---|---|---|---|---|
| 2026-04-25 08:11 | 33.43791 | -112.00935 | 1128 ft | 0 kts | 122° |
| 2026-04-25 08:15 | 33.43796 | -112.00942 | 1128 ft | 1 kts | 162° |
| 2026-04-25 08:15 | 33.43811 | -112.00945 | 1128 ft | 2 kts | 158° |
| 2026-04-25 08:15 | 33.43825 | -112.00953 | 1128 ft | 2 kts | 158° |
| 2026-04-25 08:16 | 33.43839 | -112.00959 | 1128 ft | 2 kts | 158° |
| 2026-04-25 08:16 | 33.43853 | -112.00966 | 1128 ft | 2 kts | 158° |
| 2026-04-25 08:16 | 33.43867 | -112.00973 | 1128 ft | 2 kts | 158° |
| 2026-04-25 08:16 | 33.43881 | -112.00979 | 1128 ft | 2 kts | 158° |
| 2026-04-25 08:17 | 33.43895 | -112.00986 | 1128 ft | 1 kts | 158° |
| 2026-04-25 08:17 | 33.43901 | -112.00989 | 1128 ft | 1 kts | 133° |
| 2026-04-25 08:17 | 33.43904 | -112.00995 | 1128 ft | 0 kts | 90° |
| 2026-04-25 08:17 | 33.43903 | -112.01003 | 1128 ft | 1 kts | 90° |
| 2026-04-25 08:18 | 33.43903 | -112.01004 | 1128 ft | 0 kts | 90° |
| 2026-04-25 08:20 | 33.43903 | -112.01003 | 1128 ft | 0 kts | 90° |
| 2026-04-25 08:20 | 33.43903 | -112.00995 | 1128 ft | 1 kts | 90° |
| 2026-04-25 08:21 | 33.43903 | -112.00980 | 1128 ft | 2 kts | 90° |
| 2026-04-25 08:21 | 33.43903 | -112.00962 | 1128 ft | 2 kts | 90° |
| 2026-04-25 08:21 | 33.43903 | -112.00942 | 1128 ft | 2 kts | 90° |
| 2026-04-25 08:21 | 33.43903 | -112.00921 | 1128 ft | 2 kts | 91° |
| 2026-04-25 08:22 | 33.43903 | -112.00888 | 1128 ft | 4 kts | 91° |
| 2026-04-25 08:22 | 33.43902 | -112.00851 | 1129 ft | 4 kts | 91° |
| 2026-04-25 08:22 | 33.43901 | -112.00814 | 1130 ft | 4 kts | 91° |
| 2026-04-25 08:22 | 33.43902 | -112.00764 | 1131 ft | 4 kts | 89° |
| 2026-04-25 08:23 | 33.43902 | -112.00740 | 1131 ft | 4 kts | 89° |
| 2026-04-25 08:23 | 33.43902 | -112.00697 | 1131 ft | 5 kts | 90° |
| 2026-04-25 08:23 | 33.43902 | -112.00641 | 1131 ft | 7 kts | 90° |
| 2026-04-25 08:23 | 33.43902 | -112.00574 | 1131 ft | 8 kts | 90° |
| 2026-04-25 08:24 | 33.43893 | -112.00496 | 1131 ft | 10 kts | 125° |
| 2026-04-25 08:24 | 33.43821 | -112.00470 | 1131 ft | 11 kts | 177° |
| 2026-04-25 08:24 | 33.43735 | -112.00470 | 1131 ft | 12 kts | 180° |
| 2026-04-25 08:24 | 33.43649 | -112.00470 | 1131 ft | 13 kts | 180° |
| 2026-04-25 08:25 | 33.43549 | -112.00470 | 1129 ft | 14 kts | 180° |
| 2026-04-25 08:25 | 33.43444 | -112.00469 | 1128 ft | 14 kts | 179° |
| 2026-04-25 08:25 | 33.43343 | -112.00468 | 1128 ft | 14 kts | 179° |
| 2026-04-25 08:25 | 33.43288 | -112.00404 | 1127 ft | 11 kts | 95° |
| 2026-04-25 08:26 | 33.43285 | -112.00318 | 1127 ft | 9 kts | 90° |
| 2026-04-25 08:26 | 33.43285 | -112.00239 | 1127 ft | 9 kts | 90° |
| 2026-04-25 08:26 | 33.43285 | -112.00166 | 1127 ft | 8 kts | 90° |
| 2026-04-25 08:26 | 33.43284 | -112.00096 | 1127 ft | 8 kts | 90° |
| 2026-04-25 08:27 | 33.43285 | -112.00017 | 1127 ft | 10 kts | 89° |
| 2026-04-25 08:27 | 33.43285 | -111.99929 | 1127 ft | 11 kts | 90° |
| 2026-04-25 08:27 | 33.43285 | -111.99824 | 1125 ft | 12 kts | 90° |
| 2026-04-25 08:27 | 33.43285 | -111.99724 | 1125 ft | 11 kts | 90° |
| 2026-04-25 08:28 | 33.43285 | -111.99638 | 1125 ft | 9 kts | 90° |
| 2026-04-25 08:28 | 33.43269 | -111.99573 | 1125 ft | 7 kts | 139° |
| 2026-04-25 08:28 | 33.43230 | -111.99538 | 1125 ft | 7 kts | 125° |
| 2026-04-25 08:28 | 33.43218 | -111.99474 | 1125 ft | 8 kts | 93° |
| 2026-04-25 08:29 | 33.43215 | -111.99411 | 1126 ft | 7 kts | 93° |
| 2026-04-25 08:29 | 33.43194 | -111.99359 | 1127 ft | 7 kts | 146° |
| 2026-04-25 08:29 | 33.43186 | -111.99354 | 1128 ft | 0 kts | 158° |
| 2026-04-25 08:31 | 33.43170 | -111.99348 | 1128 ft | 4 kts | 167° |
| 2026-04-25 08:31 | 33.43122 | -111.99351 | 1128 ft | 9 kts | 204° |
| 2026-04-25 08:31 | 33.43101 | -111.99441 | 1126 ft | 14 kts | 272° |
| 2026-04-25 08:31 | 33.43105 | -111.99576 | 1126 ft | 18 kts | 270° |
| 2026-04-25 08:32 | 33.43107 | -112.00037 | 1125 ft | 102 kts | 270° |
| 2026-04-25 08:32 | 33.43093 | -112.01224 | 1172 ft | 174 kts | 269° |
| 2026-04-25 08:32 | 33.43068 | -112.02796 | 1554 ft | 217 kts | 268° |
| 2026-04-25 08:32 | 33.42998 | -112.04817 | 2029 ft | 259 kts | 267° |
| 2026-04-25 08:33 | 33.42802 | -112.06876 | 3641 ft | 252 kts | 258° |
| 2026-04-25 08:33 | 33.42348 | -112.08650 | 4818 ft | 202 kts | 245° |
| 2026-04-25 08:33 | 33.41637 | -112.10156 | 5243 ft | 222 kts | 242° |
| 2026-04-25 08:33 | 33.40983 | -112.11891 | 5875 ft | 238 kts | 249° |
| 2026-04-25 08:34 | 33.40379 | -112.13780 | 6595 ft | 250 kts | 249° |
| 2026-04-25 08:34 | 33.39765 | -112.15728 | 7471 ft | 255 kts | 249° |
| 2026-04-25 08:34 | 33.39144 | -112.17719 | 8351 ft | 259 kts | 250° |
| 2026-04-25 08:34 | 33.38521 | -112.19727 | 9215 ft | 263 kts | 250° |
| 2026-04-25 08:35 | 33.37887 | -112.21779 | 10063 ft | 266 kts | 250° |
| 2026-04-25 08:35 | 33.37362 | -112.23872 | 10854 ft | 270 kts | 264° |
| 2026-04-25 08:35 | 33.37617 | -112.26106 | 11564 ft | 277 kts | 292° |
| 2026-04-25 08:35 | 33.38385 | -112.28261 | 12173 ft | 291 kts | 291° |
| 2026-04-25 08:36 | 33.39071 | -112.30640 | 12490 ft | 314 kts | 288° |
| 2026-04-25 08:36 | 33.39786 | -112.33170 | 12825 ft | 335 kts | 289° |
| 2026-04-25 08:36 | 33.40579 | -112.35903 | 13095 ft | 357 kts | 289° |
| 2026-04-25 08:36 | 33.41422 | -112.38801 | 13307 ft | 379 kts | 289° |
| 2026-04-25 08:37 | 33.42312 | -112.41852 | 13499 ft | 400 kts | 289° |
| 2026-04-25 08:37 | 33.43243 | -112.45030 | 14015 ft | 410 kts | 289° |
| 2026-04-25 08:37 | 33.44191 | -112.48261 | 14642 ft | 416 kts | 289° |
| 2026-04-25 08:37 | 33.45145 | -112.51524 | 15296 ft | 420 kts | 289° |
| 2026-04-25 08:38 | 33.45841 | -112.54921 | 15920 ft | 424 kts | 279° |
| 2026-04-25 08:38 | 33.46198 | -112.58433 | 16562 ft | 428 kts | 275° |
| 2026-04-25 08:38 | 33.46239 | -112.62029 | 17171 ft | 432 kts | 268° |
| 2026-04-25 08:38 | 33.46077 | -112.65623 | 17764 ft | 436 kts | 266° |
| 2026-04-25 08:39 | 33.45903 | -112.69234 | 18346 ft | 439 kts | 266° |
| 2026-04-25 08:39 | 33.45741 | -112.72881 | 18908 ft | 443 kts | 267° |
| 2026-04-25 08:39 | 33.45670 | -112.76575 | 19433 ft | 447 kts | 273° |
| 2026-04-25 08:39 | 33.46241 | -112.80250 | 19938 ft | 450 kts | 287° |
| 2026-04-25 08:40 | 33.47443 | -112.83701 | 20460 ft | 453 kts | 298° |
| 2026-04-25 08:40 | 33.49261 | -112.86787 | 20922 ft | 456 kts | 312° |
| 2026-04-25 08:40 | 33.51516 | -112.89416 | 21418 ft | 459 kts | 317° |
| 2026-04-25 08:40 | 33.53910 | -112.91981 | 21865 ft | 462 kts | 318° |
| 2026-04-25 08:41 | 33.56301 | -112.94587 | 22313 ft | 465 kts | 317° |
| 2026-04-25 08:41 | 33.58688 | -112.97222 | 22746 ft | 468 kts | 317° |
| 2026-04-25 08:41 | 33.61086 | -112.99874 | 23167 ft | 471 kts | 317° |
| 2026-04-25 08:41 | 33.63490 | -113.02537 | 23573 ft | 474 kts | 317° |
| 2026-04-25 08:42 | 33.65918 | -113.05231 | 23968 ft | 477 kts | 317° |
| 2026-04-25 08:42 | 33.68359 | -113.07945 | 24352 ft | 479 kts | 317° |
| 2026-04-25 08:42 | 33.70795 | -113.10654 | 24722 ft | 482 kts | 317° |
| 2026-04-25 08:42 | 33.73267 | -113.13408 | 25086 ft | 485 kts | 317° |
| 2026-04-25 08:43 | 33.75736 | -113.16162 | 25443 ft | 487 kts | 317° |
| 2026-04-25 08:43 | 33.78231 | -113.18946 | 25843 ft | 488 kts | 317° |
| 2026-04-25 08:43 | 33.80545 | -113.21532 | 26236 ft | 488 kts | 317° |
| 2026-04-25 08:43 | 33.82849 | -113.24108 | 26638 ft | 488 kts | 317° |
| 2026-04-25 08:44 | 33.85327 | -113.26881 | 27074 ft | 488 kts | 317° |
| 2026-04-25 08:44 | 33.87819 | -113.29673 | 27515 ft | 487 kts | 317° |
| 2026-04-25 08:44 | 33.90258 | -113.32410 | 27942 ft | 487 kts | 317° |
| 2026-04-25 08:44 | 33.92741 | -113.35201 | 28377 ft | 486 kts | 317° |
| 2026-04-25 08:45 | 33.95194 | -113.37960 | 28801 ft | 485 kts | 317° |
| 2026-04-25 08:45 | 33.97676 | -113.40755 | 29228 ft | 484 kts | 317° |
| 2026-04-25 08:45 | 34.00111 | -113.43500 | 29640 ft | 483 kts | 317° |
| 2026-04-25 08:45 | 34.02579 | -113.46282 | 30052 ft | 482 kts | 317° |
| 2026-04-25 08:46 | 34.05022 | -113.49039 | 30452 ft | 482 kts | 317° |
| 2026-04-25 08:46 | 34.07464 | -113.51794 | 30847 ft | 481 kts | 317° |
| 2026-04-25 08:46 | 34.09904 | -113.54549 | 31236 ft | 480 kts | 317° |
| 2026-04-25 08:46 | 34.12323 | -113.57283 | 31613 ft | 479 kts | 317° |
| 2026-04-25 08:47 | 34.14772 | -113.60053 | 31991 ft | 478 kts | 317° |
| 2026-04-25 08:47 | 34.17197 | -113.62798 | 32357 ft | 478 kts | 317° |
| 2026-04-25 08:47 | 34.19605 | -113.65524 | 32729 ft | 477 kts | 316° |
| 2026-04-25 08:47 | 34.22007 | -113.68246 | 33096 ft | 476 kts | 316° |
| 2026-04-25 08:48 | 34.24438 | -113.71003 | 33466 ft | 475 kts | 316° |
| 2026-04-25 08:48 | 34.26816 | -113.73703 | 33817 ft | 475 kts | 316° |
| 2026-04-25 08:48 | 34.29210 | -113.76424 | 34169 ft | 474 kts | 316° |
| 2026-04-25 08:48 | 34.31603 | -113.79144 | 34512 ft | 473 kts | 316° |
| 2026-04-25 08:49 | 34.33992 | -113.81864 | 34852 ft | 472 kts | 316° |
| 2026-04-25 08:49 | 34.36387 | -113.84591 | 35007 ft | 475 kts | 316° |
| 2026-04-25 08:49 | 34.38786 | -113.87323 | 35001 ft | 470 kts | 316° |
| 2026-04-25 08:50 | 34.43514 | -113.92714 | 35000 ft | 462 kts | 316° |
| 2026-04-25 08:50 | 34.48196 | -113.98065 | 35001 ft | 466 kts | 316° |
| 2026-04-25 08:51 | 34.52894 | -114.03439 | 35001 ft | 467 kts | 316° |
| 2026-04-25 08:51 | 34.57590 | -114.08822 | 35001 ft | 466 kts | 316° |
| 2026-04-25 08:52 | 34.62303 | -114.14233 | 35000 ft | 465 kts | 316° |
| 2026-04-25 08:52 | 34.66984 | -114.19617 | 35001 ft | 466 kts | 316° |
| 2026-04-25 08:53 | 34.71698 | -114.25050 | 35000 ft | 466 kts | 316° |
| 2026-04-25 08:53 | 34.76371 | -114.30445 | 35001 ft | 466 kts | 316° |
| 2026-04-25 08:54 | 34.81056 | -114.35863 | 35001 ft | 466 kts | 316° |
| 2026-04-25 08:54 | 34.85751 | -114.41302 | 35001 ft | 466 kts | 316° |
| 2026-04-25 08:55 | 34.90436 | -114.46738 | 35001 ft | 466 kts | 316° |
| 2026-04-25 08:55 | 34.95128 | -114.52190 | 35000 ft | 466 kts | 316° |
| 2026-04-25 08:56 | 34.99808 | -114.57638 | 35000 ft | 466 kts | 316° |
| 2026-04-25 08:56 | 35.04494 | -114.63101 | 35000 ft | 466 kts | 316° |
| 2026-04-25 08:57 | 35.09159 | -114.68549 | 35000 ft | 466 kts | 316° |
| 2026-04-25 08:57 | 35.13822 | -114.74004 | 35000 ft | 466 kts | 316° |
| 2026-04-25 08:58 | 35.18466 | -114.79446 | 34999 ft | 466 kts | 316° |
| 2026-04-25 08:58 | 35.23150 | -114.84943 | 34999 ft | 466 kts | 316° |
| 2026-04-25 08:59 | 35.27817 | -114.90431 | 35000 ft | 466 kts | 316° |
| 2026-04-25 08:59 | 35.32479 | -114.95921 | 35000 ft | 466 kts | 316° |
| 2026-04-25 09:00 | 35.37157 | -115.01440 | 35000 ft | 466 kts | 316° |
| 2026-04-25 09:00 | 35.41790 | -115.06916 | 35000 ft | 466 kts | 316° |
| 2026-04-25 09:01 | 35.46466 | -115.12451 | 35000 ft | 466 kts | 316° |
| 2026-04-25 09:01 | 35.51101 | -115.17947 | 35000 ft | 466 kts | 316° |
| 2026-04-25 09:02 | 35.55770 | -115.23492 | 35000 ft | 466 kts | 316° |
| 2026-04-25 09:02 | 35.60401 | -115.29002 | 35000 ft | 466 kts | 316° |
| 2026-04-25 09:03 | 35.65063 | -115.34558 | 35000 ft | 466 kts | 316° |
| 2026-04-25 09:03 | 35.69696 | -115.40089 | 35000 ft | 466 kts | 316° |
| 2026-04-25 09:04 | 35.74343 | -115.45646 | 34999 ft | 466 kts | 316° |
| 2026-04-25 09:04 | 35.78967 | -115.51184 | 34999 ft | 466 kts | 316° |
| 2026-04-25 09:05 | 35.83623 | -115.56770 | 34999 ft | 466 kts | 316° |
| 2026-04-25 09:05 | 35.88258 | -115.62342 | 34999 ft | 466 kts | 316° |
| 2026-04-25 09:06 | 35.92817 | -115.67831 | 34999 ft | 466 kts | 315° |
| 2026-04-25 09:06 | 35.97462 | -115.73432 | 35000 ft | 466 kts | 315° |
| 2026-04-25 09:07 | 36.02076 | -115.79007 | 35000 ft | 466 kts | 315° |
| 2026-04-25 09:07 | 36.06681 | -115.84580 | 35000 ft | 466 kts | 315° |
| 2026-04-25 09:08 | 36.11322 | -115.90207 | 35000 ft | 466 kts | 315° |
| 2026-04-25 09:08 | 36.15935 | -115.95810 | 35000 ft | 466 kts | 315° |
| 2026-04-25 09:09 | 36.20540 | -116.01411 | 35000 ft | 466 kts | 315° |
| 2026-04-25 09:09 | 36.25138 | -116.07014 | 35000 ft | 466 kts | 315° |
| 2026-04-25 09:10 | 36.29743 | -116.12637 | 35000 ft | 466 kts | 315° |
| 2026-04-25 09:10 | 36.34373 | -116.18300 | 35000 ft | 466 kts | 315° |
| 2026-04-25 09:11 | 36.41280 | -116.26765 | 35000 ft | 466 kts | 315° |
| 2026-04-25 09:11 | 36.45884 | -116.32420 | 35000 ft | 466 kts | 315° |
| 2026-04-25 09:12 | 36.50473 | -116.38067 | 35000 ft | 466 kts | 315° |
| 2026-04-25 09:12 | 36.55063 | -116.43725 | 35000 ft | 466 kts | 315° |
| 2026-04-25 09:13 | 36.59665 | -116.49407 | 35000 ft | 466 kts | 315° |
| 2026-04-25 09:13 | 36.64246 | -116.55074 | 35000 ft | 466 kts | 315° |
| 2026-04-25 09:14 | 36.68826 | -116.60751 | 35000 ft | 466 kts | 315° |
| 2026-04-25 09:14 | 36.73231 | -116.66219 | 35000 ft | 466 kts | 315° |
| 2026-04-25 09:15 | 36.77974 | -116.72048 | 35000 ft | 466 kts | 316° |
| 2026-04-25 09:15 | 36.83084 | -116.76984 | 35001 ft | 466 kts | 326° |
| 2026-04-25 09:16 | 36.88442 | -116.81548 | 35000 ft | 466 kts | 325° |
| 2026-04-25 09:16 | 36.93773 | -116.86093 | 34999 ft | 466 kts | 326° |
| 2026-04-25 09:17 | 37.01810 | -116.92888 | 34999 ft | 466 kts | 326° |
| 2026-04-25 09:18 | 37.07202 | -116.97437 | 34999 ft | 466 kts | 326° |
| 2026-04-25 09:18 | 37.12542 | -117.01942 | 34999 ft | 466 kts | 326° |
| 2026-04-25 09:19 | 37.17913 | -117.06477 | 34999 ft | 466 kts | 326° |
| 2026-04-25 09:19 | 37.23272 | -117.11009 | 34999 ft | 466 kts | 326° |
| 2026-04-25 09:20 | 37.28646 | -117.15559 | 34999 ft | 466 kts | 326° |
| 2026-04-25 09:20 | 37.34020 | -117.20116 | 34999 ft | 466 kts | 326° |
| 2026-04-25 09:21 | 37.39375 | -117.24665 | 34999 ft | 466 kts | 326° |
| 2026-04-25 09:21 | 37.44733 | -117.29224 | 34999 ft | 466 kts | 326° |
| 2026-04-25 09:22 | 37.50100 | -117.33798 | 34999 ft | 466 kts | 326° |
| 2026-04-25 09:22 | 37.55477 | -117.38390 | 34999 ft | 466 kts | 326° |
| 2026-04-25 09:23 | 37.60826 | -117.42965 | 34999 ft | 466 kts | 326° |
| 2026-04-25 09:23 | 37.66177 | -117.47549 | 34999 ft | 466 kts | 326° |
| 2026-04-25 09:24 | 37.71510 | -117.52126 | 34999 ft | 466 kts | 326° |
| 2026-04-25 09:24 | 37.76875 | -117.56738 | 34999 ft | 466 kts | 326° |
| 2026-04-25 09:25 | 37.82204 | -117.61329 | 34999 ft | 466 kts | 326° |
| 2026-04-25 09:25 | 37.87539 | -117.65933 | 34999 ft | 466 kts | 325° |
| 2026-04-25 09:26 | 37.92885 | -117.70556 | 34999 ft | 466 kts | 325° |
| 2026-04-25 09:26 | 37.98210 | -117.75189 | 34999 ft | 466 kts | 324° |
| 2026-04-25 09:27 | 38.03140 | -117.80513 | 35001 ft | 466 kts | 316° |
| 2026-04-25 09:27 | 38.07843 | -117.86098 | 34999 ft | 466 kts | 317° |
| 2026-04-25 09:28 | 38.12580 | -117.91740 | 34999 ft | 466 kts | 316° |
| 2026-04-25 09:28 | 38.17269 | -117.97359 | 34999 ft | 466 kts | 316° |
| 2026-04-25 09:29 | 38.21984 | -118.03030 | 34999 ft | 466 kts | 316° |
| 2026-04-25 09:29 | 38.26662 | -118.08672 | 34999 ft | 466 kts | 316° |
| 2026-04-25 09:30 | 38.31345 | -118.14334 | 34999 ft | 466 kts | 316° |
| 2026-04-25 09:30 | 38.36044 | -118.20028 | 34999 ft | 466 kts | 316° |
| 2026-04-25 09:31 | 38.40718 | -118.25703 | 34999 ft | 466 kts | 316° |
| 2026-04-25 09:31 | 38.45411 | -118.31413 | 34999 ft | 466 kts | 316° |
| 2026-04-25 09:32 | 38.50075 | -118.37099 | 34999 ft | 466 kts | 316° |
| 2026-04-25 09:32 | 38.54759 | -118.42819 | 34999 ft | 466 kts | 316° |
| 2026-04-25 09:33 | 38.59415 | -118.48516 | 34999 ft | 466 kts | 316° |
| 2026-04-25 09:33 | 38.64068 | -118.54221 | 34999 ft | 466 kts | 316° |
| 2026-04-25 09:34 | 38.68736 | -118.59956 | 34999 ft | 466 kts | 316° |
| 2026-04-25 09:34 | 38.73418 | -118.65718 | 34999 ft | 466 kts | 316° |
| 2026-04-25 09:35 | 38.78075 | -118.71461 | 34999 ft | 466 kts | 316° |
| 2026-04-25 09:35 | 38.82724 | -118.77203 | 35000 ft | 466 kts | 316° |
| 2026-04-25 09:36 | 38.87379 | -118.82965 | 35000 ft | 466 kts | 316° |
| 2026-04-25 09:36 | 38.92024 | -118.88727 | 34999 ft | 466 kts | 316° |
| 2026-04-25 09:37 | 38.96688 | -118.94521 | 34999 ft | 466 kts | 316° |
| 2026-04-25 09:37 | 39.01323 | -119.00291 | 34999 ft | 466 kts | 316° |
| 2026-04-25 09:38 | 39.05969 | -119.06085 | 34999 ft | 466 kts | 316° |
| 2026-04-25 09:38 | 39.10614 | -119.11889 | 34999 ft | 466 kts | 316° |
| 2026-04-25 09:39 | 39.15238 | -119.17678 | 34999 ft | 466 kts | 316° |
| 2026-04-25 09:39 | 39.19877 | -119.23498 | 34999 ft | 466 kts | 316° |
| 2026-04-25 09:40 | 39.25960 | -119.31145 | 34999 ft | 466 kts | 316° |
| 2026-04-25 09:40 | 39.29901 | -119.36112 | 34999 ft | 466 kts | 316° |
| 2026-04-25 09:41 | 39.34551 | -119.41983 | 34999 ft | 466 kts | 316° |
| 2026-04-25 09:41 | 39.39174 | -119.47832 | 34999 ft | 466 kts | 316° |
| 2026-04-25 09:42 | 39.43763 | -119.53648 | 34999 ft | 466 kts | 316° |
| 2026-04-25 09:42 | 39.48402 | -119.59538 | 34999 ft | 466 kts | 316° |
| 2026-04-25 09:43 | 39.53480 | -119.64680 | 34995 ft | 465 kts | 332° |
| 2026-04-25 09:43 | 39.56422 | -119.66259 | 34999 ft | 465 kts | 343° |
| 2026-04-25 09:43 | 39.59584 | -119.67232 | 35006 ft | 466 kts | 348° |
| 2026-04-25 09:44 | 39.65933 | -119.68979 | 34999 ft | 466 kts | 347° |
| 2026-04-25 09:44 | 39.72248 | -119.70787 | 34999 ft | 466 kts | 347° |
| 2026-04-25 09:45 | 39.78560 | -119.72562 | 34999 ft | 466 kts | 347° |
| 2026-04-25 09:45 | 39.84894 | -119.74334 | 34999 ft | 466 kts | 348° |
| 2026-04-25 09:46 | 39.91215 | -119.76097 | 34999 ft | 466 kts | 348° |
| 2026-04-25 09:46 | 39.97545 | -119.77861 | 34998 ft | 466 kts | 348° |
| 2026-04-25 09:47 | 40.03887 | -119.79630 | 34998 ft | 466 kts | 348° |
| 2026-04-25 09:47 | 40.10225 | -119.81399 | 34999 ft | 466 kts | 348° |
| 2026-04-25 09:48 | 40.16536 | -119.83164 | 34999 ft | 466 kts | 348° |
| 2026-04-25 09:48 | 40.22864 | -119.84935 | 34999 ft | 466 kts | 348° |
| 2026-04-25 09:49 | 40.29190 | -119.86710 | 34999 ft | 466 kts | 348° |
| 2026-04-25 09:49 | 40.35506 | -119.88485 | 34999 ft | 466 kts | 348° |
| 2026-04-25 09:50 | 40.41861 | -119.90274 | 34999 ft | 466 kts | 348° |
| 2026-04-25 09:50 | 40.48190 | -119.92060 | 34999 ft | 466 kts | 348° |
| 2026-04-25 09:51 | 40.54531 | -119.93852 | 34999 ft | 466 kts | 348° |
| 2026-04-25 09:51 | 40.60837 | -119.95638 | 34999 ft | 466 kts | 348° |
| 2026-04-25 09:52 | 40.67175 | -119.97437 | 34999 ft | 466 kts | 348° |
| 2026-04-25 09:52 | 40.73513 | -119.99239 | 34999 ft | 466 kts | 348° |
| 2026-04-25 09:53 | 40.79799 | -120.01028 | 34999 ft | 466 kts | 348° |
| 2026-04-25 09:53 | 40.86141 | -120.02839 | 34999 ft | 466 kts | 348° |
| 2026-04-25 09:54 | 40.92485 | -120.04656 | 34999 ft | 466 kts | 348° |
| 2026-04-25 09:54 | 40.98811 | -120.06471 | 34999 ft | 466 kts | 348° |
| 2026-04-25 09:55 | 41.05103 | -120.08279 | 34999 ft | 466 kts | 348° |
| 2026-04-25 09:55 | 41.11392 | -120.10091 | 34999 ft | 466 kts | 348° |
| 2026-04-25 09:56 | 41.17711 | -120.11915 | 34999 ft | 466 kts | 348° |
| 2026-04-25 09:56 | 41.24033 | -120.13741 | 34999 ft | 466 kts | 348° |
| 2026-04-25 09:57 | 41.30351 | -120.15570 | 34999 ft | 466 kts | 348° |
| 2026-04-25 09:57 | 41.36660 | -120.17400 | 34999 ft | 466 kts | 348° |
| 2026-04-25 09:58 | 41.42992 | -120.19241 | 34999 ft | 466 kts | 348° |
| 2026-04-25 09:58 | 41.49307 | -120.21080 | 34999 ft | 466 kts | 348° |
| 2026-04-25 09:59 | 41.55668 | -120.22936 | 34999 ft | 466 kts | 348° |
| 2026-04-25 09:59 | 41.61952 | -120.24773 | 34999 ft | 466 kts | 348° |
| 2026-04-25 10:00 | 41.68306 | -120.26635 | 34999 ft | 466 kts | 348° |
| 2026-04-25 10:00 | 41.74615 | -120.28487 | 34999 ft | 466 kts | 348° |
| 2026-04-25 10:01 | 41.80940 | -120.30347 | 34999 ft | 466 kts | 348° |
| 2026-04-25 10:01 | 41.87244 | -120.32206 | 34999 ft | 466 kts | 348° |
| 2026-04-25 10:02 | 41.93590 | -120.34080 | 34999 ft | 466 kts | 348° |
| 2026-04-25 10:02 | 41.99901 | -120.35948 | 34999 ft | 466 kts | 348° |
| 2026-04-25 10:03 | 42.06204 | -120.37817 | 34999 ft | 466 kts | 348° |
| 2026-04-25 10:03 | 42.12515 | -120.39692 | 34999 ft | 466 kts | 348° |
| 2026-04-25 10:04 | 42.18809 | -120.41567 | 34999 ft | 466 kts | 348° |
| 2026-04-25 10:04 | 42.25143 | -120.43456 | 34999 ft | 466 kts | 348° |
| 2026-04-25 10:05 | 42.31479 | -120.45351 | 34999 ft | 466 kts | 348° |
| 2026-04-25 10:05 | 42.37767 | -120.47234 | 34999 ft | 466 kts | 348° |
| 2026-04-25 10:06 | 42.44123 | -120.49143 | 34999 ft | 466 kts | 348° |
| 2026-04-25 10:06 | 42.50264 | -120.51678 | 34999 ft | 466 kts | 338° |
| 2026-04-25 10:07 | 42.56249 | -120.55140 | 34999 ft | 466 kts | 337° |
| 2026-04-25 10:07 | 42.62183 | -120.58616 | 34999 ft | 466 kts | 336° |
| 2026-04-25 10:08 | 42.68082 | -120.62131 | 34999 ft | 466 kts | 336° |
| 2026-04-25 10:08 | 42.73996 | -120.65691 | 35000 ft | 466 kts | 336° |
| 2026-04-25 10:09 | 42.79913 | -120.69275 | 34999 ft | 466 kts | 335° |
| 2026-04-25 10:09 | 42.85822 | -120.72870 | 35000 ft | 466 kts | 335° |
| 2026-04-25 10:10 | 42.91706 | -120.76463 | 35000 ft | 466 kts | 335° |
| 2026-04-25 10:10 | 42.97621 | -120.80084 | 34999 ft | 466 kts | 335° |
| 2026-04-25 10:11 | 43.03519 | -120.83704 | 34999 ft | 466 kts | 335° |
| 2026-04-25 10:11 | 43.09389 | -120.87315 | 34999 ft | 466 kts | 335° |
| 2026-04-25 10:12 | 43.15294 | -120.90955 | 34999 ft | 466 kts | 335° |
| 2026-04-25 10:13 | 43.24152 | -120.96433 | 34999 ft | 466 kts | 335° |
| 2026-04-25 10:13 | 43.30014 | -121.00067 | 34999 ft | 466 kts | 335° |
| 2026-04-25 10:14 | 43.35918 | -121.03735 | 34999 ft | 466 kts | 335° |
| 2026-04-25 10:14 | 43.41823 | -121.07411 | 34999 ft | 466 kts | 335° |
| 2026-04-25 10:15 | 43.47694 | -121.11075 | 34999 ft | 466 kts | 335° |
| 2026-04-25 10:15 | 43.53571 | -121.14750 | 34999 ft | 466 kts | 335° |
| 2026-04-25 10:16 | 43.59464 | -121.18443 | 34999 ft | 466 kts | 335° |
| 2026-04-25 10:16 | 43.65333 | -121.22128 | 34999 ft | 466 kts | 335° |
| 2026-04-25 10:17 | 43.71217 | -121.25831 | 34999 ft | 466 kts | 335° |
| 2026-04-25 10:17 | 43.77109 | -121.29546 | 34999 ft | 466 kts | 335° |
| 2026-04-25 10:18 | 43.83012 | -121.33277 | 34999 ft | 466 kts | 335° |
| 2026-04-25 10:18 | 43.88862 | -121.36983 | 34999 ft | 466 kts | 335° |
| 2026-04-25 10:19 | 43.94765 | -121.40730 | 34999 ft | 466 kts | 335° |
| 2026-04-25 10:19 | 44.00631 | -121.44462 | 34999 ft | 466 kts | 335° |
| 2026-04-25 10:20 | 44.06484 | -121.48194 | 35000 ft | 466 kts | 335° |
| 2026-04-25 10:20 | 44.12318 | -121.51922 | 35000 ft | 466 kts | 335° |
| 2026-04-25 10:21 | 44.18218 | -121.55700 | 35000 ft | 466 kts | 335° |
| 2026-04-25 10:21 | 44.24072 | -121.59457 | 35000 ft | 466 kts | 335° |
| 2026-04-25 10:22 | 44.29966 | -121.63248 | 35000 ft | 466 kts | 335° |
| 2026-04-25 10:22 | 44.35810 | -121.67015 | 34999 ft | 466 kts | 335° |
| 2026-04-25 10:23 | 44.41714 | -121.70829 | 35000 ft | 466 kts | 335° |
| 2026-04-25 10:23 | 44.47544 | -121.74604 | 35000 ft | 466 kts | 335° |
| 2026-04-25 10:24 | 44.53412 | -121.78412 | 35000 ft | 466 kts | 335° |
| 2026-04-25 10:24 | 44.59279 | -121.82227 | 35000 ft | 466 kts | 335° |
| 2026-04-25 10:25 | 44.65134 | -121.86043 | 35000 ft | 466 kts | 335° |
| 2026-04-25 10:25 | 44.71006 | -121.89880 | 35000 ft | 466 kts | 335° |
| 2026-04-25 10:26 | 44.76872 | -121.93720 | 35000 ft | 466 kts | 335° |
| 2026-04-25 10:26 | 44.82726 | -121.97562 | 35000 ft | 466 kts | 335° |
| 2026-04-25 10:27 | 44.88589 | -122.01417 | 35000 ft | 466 kts | 335° |
| 2026-04-25 10:27 | 44.94436 | -122.05271 | 35000 ft | 466 kts | 335° |
| 2026-04-25 10:28 | 45.00299 | -122.09145 | 35000 ft | 466 kts | 335° |
| 2026-04-25 10:28 | 45.06170 | -122.13032 | 35000 ft | 466 kts | 335° |
| 2026-04-25 10:29 | 45.11982 | -122.16889 | 35000 ft | 466 kts | 335° |
| 2026-04-25 10:29 | 45.17844 | -122.20788 | 35000 ft | 466 kts | 335° |
| 2026-04-25 10:30 | 45.23694 | -122.24688 | 35000 ft | 466 kts | 335° |
| 2026-04-25 10:30 | 45.29554 | -122.28603 | 35001 ft | 466 kts | 335° |
| 2026-04-25 10:31 | 45.35389 | -122.32510 | 35001 ft | 466 kts | 335° |
| 2026-04-25 10:31 | 45.41238 | -122.36437 | 35001 ft | 466 kts | 335° |
| 2026-04-25 10:32 | 45.47107 | -122.40385 | 35001 ft | 466 kts | 335° |
| 2026-04-25 10:32 | 45.52936 | -122.44316 | 35001 ft | 466 kts | 335° |
| 2026-04-25 10:33 | 45.58770 | -122.48260 | 35001 ft | 466 kts | 335° |
| 2026-04-25 10:33 | 45.64613 | -122.52218 | 35001 ft | 466 kts | 335° |
| 2026-04-25 10:34 | 45.70446 | -122.56138 | 35000 ft | 466 kts | 336° |
| 2026-04-25 10:34 | 45.76524 | -122.59270 | 34999 ft | 466 kts | 347° |
| 2026-04-25 10:35 | 45.82902 | -122.60970 | 35001 ft | 466 kts | 350° |
| 2026-04-25 10:35 | 45.89265 | -122.62634 | 35000 ft | 466 kts | 350° |
| 2026-04-25 10:36 | 45.95601 | -122.64264 | 35000 ft | 466 kts | 350° |
| 2026-04-25 10:36 | 46.02001 | -122.65891 | 35000 ft | 466 kts | 349° |
| 2026-04-25 10:37 | 46.08331 | -122.67491 | 35000 ft | 466 kts | 350° |
| 2026-04-25 10:37 | 46.14624 | -122.69080 | 35000 ft | 466 kts | 350° |
| 2026-04-25 10:38 | 46.20992 | -122.70688 | 35000 ft | 466 kts | 350° |
| 2026-04-25 10:38 | 46.27382 | -122.72303 | 35000 ft | 466 kts | 350° |
| 2026-04-25 10:39 | 46.33726 | -122.73909 | 35000 ft | 466 kts | 350° |
| 2026-04-25 10:39 | 46.40112 | -122.75530 | 35001 ft | 466 kts | 350° |
| 2026-04-25 10:40 | 46.46491 | -122.77151 | 35001 ft | 466 kts | 350° |
| 2026-04-25 10:40 | 46.52860 | -122.78774 | 35001 ft | 466 kts | 350° |
| 2026-04-25 10:41 | 46.59228 | -122.80401 | 35001 ft | 466 kts | 350° |
| 2026-04-25 10:41 | 46.65593 | -122.82030 | 35001 ft | 466 kts | 350° |
| 2026-04-25 10:42 | 46.71926 | -122.83655 | 35001 ft | 466 kts | 350° |
| 2026-04-25 10:42 | 46.78306 | -122.85297 | 35001 ft | 466 kts | 350° |
| 2026-04-25 10:43 | 46.84676 | -122.86939 | 35001 ft | 466 kts | 350° |
| 2026-04-25 10:43 | 46.91071 | -122.88593 | 35001 ft | 466 kts | 350° |
| 2026-04-25 10:44 | 46.97234 | -122.91259 | 34999 ft | 465 kts | 333° |
| 2026-04-25 10:44 | 46.99987 | -122.93735 | 35001 ft | 465 kts | 322° |
| 2026-04-25 10:44 | 47.02468 | -122.96744 | 35006 ft | 466 kts | 319° |
| 2026-04-25 10:45 | 47.07333 | -123.02926 | 35000 ft | 466 kts | 319° |
| 2026-04-25 10:45 | 47.12223 | -123.09096 | 35000 ft | 466 kts | 319° |
| 2026-04-25 10:46 | 47.17100 | -123.15272 | 35001 ft | 466 kts | 319° |
| 2026-04-25 10:46 | 47.21987 | -123.21474 | 35001 ft | 466 kts | 319° |
| 2026-04-25 10:47 | 47.26871 | -123.27688 | 35000 ft | 466 kts | 319° |
| 2026-04-25 10:47 | 47.31755 | -123.33916 | 35001 ft | 466 kts | 319° |
| 2026-04-25 10:48 | 47.36637 | -123.40160 | 35000 ft | 466 kts | 319° |
| 2026-04-25 10:48 | 47.41491 | -123.46382 | 35000 ft | 466 kts | 319° |
| 2026-04-25 10:49 | 47.46363 | -123.52641 | 35000 ft | 466 kts | 319° |
| 2026-04-25 10:49 | 47.51233 | -123.58916 | 35000 ft | 466 kts | 319° |
| 2026-04-25 10:50 | 47.56112 | -123.65217 | 35000 ft | 466 kts | 319° |
| 2026-04-25 10:50 | 47.60981 | -123.71522 | 35000 ft | 466 kts | 319° |
| 2026-04-25 10:51 | 47.65818 | -123.77801 | 35000 ft | 466 kts | 319° |
| 2026-04-25 10:51 | 47.70689 | -123.84141 | 35000 ft | 466 kts | 319° |
| 2026-04-25 10:52 | 47.75536 | -123.90466 | 35000 ft | 466 kts | 319° |
| 2026-04-25 10:52 | 47.80367 | -123.96786 | 35000 ft | 466 kts | 319° |
| 2026-04-25 10:53 | 47.85234 | -124.03171 | 35000 ft | 466 kts | 319° |
| 2026-04-25 10:53 | 47.90069 | -124.09528 | 35001 ft | 466 kts | 319° |
| 2026-04-25 10:54 | 47.94890 | -124.15884 | 35001 ft | 466 kts | 319° |
| 2026-04-25 10:54 | 47.99737 | -124.22292 | 35000 ft | 466 kts | 319° |
| 2026-04-25 10:55 | 48.04571 | -124.28698 | 35001 ft | 466 kts | 319° |
| 2026-04-25 10:55 | 48.09382 | -124.35091 | 35001 ft | 466 kts | 319° |
| 2026-04-25 10:56 | 48.14218 | -124.41534 | 35000 ft | 466 kts | 319° |
| 2026-04-25 10:56 | 48.19014 | -124.47940 | 35001 ft | 466 kts | 319° |
| 2026-04-25 10:57 | 48.23854 | -124.54423 | 35000 ft | 466 kts | 319° |
| 2026-04-25 10:57 | 48.28656 | -124.60868 | 35000 ft | 466 kts | 319° |
| 2026-04-25 10:58 | 48.33796 | -124.66789 | 35001 ft | 466 kts | 324° |
| 2026-04-25 10:58 | 48.39039 | -124.72432 | 35001 ft | 466 kts | 324° |
| 2026-04-25 10:59 | 48.44247 | -124.78107 | 35001 ft | 466 kts | 324° |
| 2026-04-25 10:59 | 48.49482 | -124.83815 | 35001 ft | 466 kts | 324° |
| 2026-04-25 11:00 | 48.54711 | -124.89530 | 35001 ft | 466 kts | 324° |
| 2026-04-25 11:00 | 48.59960 | -124.95280 | 35000 ft | 466 kts | 324° |
| 2026-04-25 11:01 | 48.65180 | -125.01012 | 35000 ft | 466 kts | 324° |
| 2026-04-25 11:01 | 48.70396 | -125.06754 | 35000 ft | 466 kts | 324° |
| 2026-04-25 11:02 | 48.75610 | -125.12508 | 35000 ft | 466 kts | 324° |
| 2026-04-25 11:02 | 48.80836 | -125.18291 | 35000 ft | 466 kts | 324° |
| 2026-04-25 11:03 | 48.86071 | -125.24100 | 35000 ft | 466 kts | 324° |
| 2026-04-25 11:03 | 48.91275 | -125.29888 | 35000 ft | 466 kts | 324° |
| 2026-04-25 11:04 | 48.96453 | -125.35662 | 35000 ft | 466 kts | 324° |
| 2026-04-25 11:04 | 49.01664 | -125.41489 | 35000 ft | 466 kts | 324° |
| 2026-04-25 11:05 | 49.06873 | -125.47330 | 35000 ft | 466 kts | 324° |
| 2026-04-25 11:05 | 49.12051 | -125.53148 | 35000 ft | 466 kts | 324° |
| 2026-04-25 11:06 | 49.17261 | -125.59018 | 35000 ft | 466 kts | 324° |
| 2026-04-25 11:06 | 49.22446 | -125.64875 | 35000 ft | 466 kts | 324° |
| 2026-04-25 11:07 | 49.27645 | -125.70765 | 35001 ft | 466 kts | 323° |
| 2026-04-25 11:07 | 49.32819 | -125.76642 | 35001 ft | 466 kts | 323° |
| 2026-04-25 11:08 | 49.38006 | -125.82549 | 35001 ft | 466 kts | 323° |
| 2026-04-25 11:08 | 49.43213 | -125.88494 | 35000 ft | 466 kts | 323° |
| 2026-04-25 11:09 | 49.48362 | -125.94389 | 35000 ft | 466 kts | 323° |
| 2026-04-25 11:09 | 49.53552 | -126.00349 | 35000 ft | 466 kts | 323° |
| 2026-04-25 11:10 | 49.58710 | -126.06287 | 35000 ft | 466 kts | 323° |
| 2026-04-25 11:10 | 49.63897 | -126.12273 | 35000 ft | 466 kts | 323° |
| 2026-04-25 11:11 | 49.69059 | -126.18250 | 35000 ft | 466 kts | 323° |
| 2026-04-25 11:11 | 49.74227 | -126.24249 | 35000 ft | 466 kts | 323° |
| 2026-04-25 11:12 | 49.79369 | -126.30231 | 35000 ft | 466 kts | 323° |
| 2026-04-25 11:12 | 49.84538 | -126.36264 | 35000 ft | 466 kts | 323° |
| 2026-04-25 11:13 | 49.89709 | -126.42315 | 35000 ft | 466 kts | 323° |
| 2026-04-25 11:13 | 49.94835 | -126.48329 | 35000 ft | 466 kts | 323° |
| 2026-04-25 11:14 | 49.99936 | -126.54330 | 35000 ft | 466 kts | 323° |
| 2026-04-25 11:14 | 50.05112 | -126.60438 | 35000 ft | 466 kts | 323° |
| 2026-04-25 11:15 | 50.10250 | -126.66515 | 35000 ft | 466 kts | 322° |
| 2026-04-25 11:15 | 50.15396 | -126.72620 | 35000 ft | 466 kts | 322° |
| 2026-04-25 11:16 | 50.23109 | -126.81802 | 35001 ft | 466 kts | 322° |
| 2026-04-25 11:16 | 50.28215 | -126.87901 | 35000 ft | 466 kts | 322° |
| 2026-04-25 11:17 | 50.33353 | -126.94056 | 35000 ft | 466 kts | 322° |
| 2026-04-25 11:17 | 50.38485 | -127.00220 | 35000 ft | 466 kts | 322° |
| 2026-04-25 11:18 | 50.43612 | -127.06396 | 35001 ft | 466 kts | 322° |
| 2026-04-25 11:18 | 50.48725 | -127.12572 | 35001 ft | 466 kts | 322° |
| 2026-04-25 11:19 | 50.53811 | -127.18732 | 35000 ft | 466 kts | 322° |
| 2026-04-25 11:19 | 50.58916 | -127.24932 | 35000 ft | 466 kts | 322° |
| 2026-04-25 11:20 | 50.64027 | -127.31158 | 35000 ft | 466 kts | 322° |
| 2026-04-25 11:20 | 50.69349 | -127.36980 | 35000 ft | 465 kts | 330° |
| 2026-04-25 11:21 | 50.74958 | -127.41917 | 35001 ft | 466 kts | 331° |
| 2026-04-25 11:21 | 50.80615 | -127.46896 | 35001 ft | 466 kts | 331° |
| 2026-04-25 11:22 | 50.86234 | -127.51801 | 35001 ft | 466 kts | 332° |
| 2026-04-25 11:22 | 50.91902 | -127.56737 | 35001 ft | 466 kts | 332° |
| 2026-04-25 11:23 | 50.97547 | -127.61654 | 35001 ft | 466 kts | 332° |
| 2026-04-25 11:23 | 51.02410 | -127.65894 | 35001 ft | 466 kts | 331° |
| 2026-04-25 11:24 | 51.08056 | -127.70826 | 35001 ft | 466 kts | 331° |
| 2026-04-25 11:24 | 51.13720 | -127.75785 | 35001 ft | 466 kts | 331° |
| 2026-04-25 11:25 | 51.19327 | -127.80707 | 35001 ft | 466 kts | 331° |
| 2026-04-25 11:25 | 51.24989 | -127.85689 | 35001 ft | 466 kts | 331° |
| 2026-04-25 11:26 | 51.30628 | -127.90665 | 35001 ft | 466 kts | 331° |
| 2026-04-25 11:26 | 51.36285 | -127.95671 | 35001 ft | 466 kts | 331° |
| 2026-04-25 11:27 | 51.41948 | -128.00696 | 35001 ft | 466 kts | 331° |
| 2026-04-25 11:27 | 51.46644 | -128.04874 | 35001 ft | 466 kts | 331° |
| 2026-04-25 11:28 | 51.53214 | -128.10735 | 35001 ft | 466 kts | 331° |
| 2026-04-25 11:28 | 51.58875 | -128.15801 | 35001 ft | 466 kts | 331° |
| 2026-04-25 11:29 | 51.64531 | -128.20877 | 35001 ft | 466 kts | 331° |
| 2026-04-25 11:29 | 51.70171 | -128.25954 | 35001 ft | 466 kts | 331° |
| 2026-04-25 11:30 | 51.75796 | -128.31032 | 35001 ft | 466 kts | 331° |
| 2026-04-25 11:30 | 51.81440 | -128.36142 | 35001 ft | 466 kts | 331° |
| 2026-04-25 11:31 | 51.87045 | -128.41231 | 35001 ft | 466 kts | 331° |
| 2026-04-25 11:31 | 51.92697 | -128.46378 | 35001 ft | 466 kts | 331° |
| 2026-04-25 11:32 | 51.98321 | -128.51512 | 35001 ft | 466 kts | 331° |
| 2026-04-25 11:32 | 52.03911 | -128.56632 | 35001 ft | 466 kts | 331° |
| 2026-04-25 11:33 | 52.09531 | -128.61793 | 35001 ft | 466 kts | 331° |
| 2026-04-25 11:33 | 52.15180 | -128.66997 | 35001 ft | 466 kts | 330° |
| 2026-04-25 11:34 | 52.20776 | -128.72166 | 35001 ft | 466 kts | 330° |
| 2026-04-25 11:34 | 52.26381 | -128.77359 | 35001 ft | 466 kts | 330° |
| 2026-04-25 11:35 | 52.32008 | -128.82582 | 35001 ft | 466 kts | 330° |
| 2026-04-25 11:35 | 52.37607 | -128.87795 | 35001 ft | 466 kts | 330° |
| 2026-04-25 11:36 | 52.43212 | -128.93028 | 35001 ft | 466 kts | 330° |
| 2026-04-25 11:36 | 52.48815 | -128.98277 | 35001 ft | 466 kts | 330° |
| 2026-04-25 11:37 | 52.54416 | -129.03538 | 35001 ft | 466 kts | 330° |
| 2026-04-25 11:37 | 52.60024 | -129.08824 | 35001 ft | 466 kts | 330° |
| 2026-04-25 11:38 | 52.65630 | -129.14122 | 35001 ft | 466 kts | 330° |
| 2026-04-25 11:38 | 52.71235 | -129.19435 | 35001 ft | 466 kts | 330° |
| 2026-04-25 11:39 | 52.76785 | -129.24712 | 35001 ft | 466 kts | 330° |
| 2026-04-25 11:39 | 52.82388 | -129.30054 | 35001 ft | 466 kts | 330° |
| 2026-04-25 11:40 | 52.87983 | -129.35406 | 35001 ft | 466 kts | 330° |
| 2026-04-25 11:40 | 52.93573 | -129.40768 | 35001 ft | 466 kts | 330° |
| 2026-04-25 11:41 | 52.99166 | -129.46149 | 35001 ft | 466 kts | 330° |
| 2026-04-25 11:41 | 53.04755 | -129.51538 | 35001 ft | 466 kts | 330° |
| 2026-04-25 11:42 | 53.10342 | -129.56885 | 35001 ft | 466 kts | 330° |
| 2026-04-25 11:42 | 53.15909 | -129.62228 | 35001 ft | 466 kts | 330° |
| 2026-04-25 11:43 | 53.21486 | -129.67600 | 35001 ft | 466 kts | 329° |
| 2026-04-25 11:43 | 53.27081 | -129.73004 | 35001 ft | 466 kts | 329° |
| 2026-04-25 11:44 | 53.32669 | -129.78420 | 35001 ft | 466 kts | 329° |
| 2026-04-25 11:44 | 53.38233 | -129.83829 | 35000 ft | 466 kts | 329° |
| 2026-04-25 11:45 | 53.43827 | -129.89285 | 35001 ft | 466 kts | 329° |
| 2026-04-25 11:45 | 53.49389 | -129.94725 | 35001 ft | 466 kts | 329° |
| 2026-04-25 11:46 | 53.54988 | -130.00218 | 35000 ft | 466 kts | 329° |
| 2026-04-25 11:46 | 53.60557 | -130.05701 | 35001 ft | 466 kts | 329° |
| 2026-04-25 11:47 | 53.66120 | -130.11192 | 35000 ft | 466 kts | 329° |
| 2026-04-25 11:47 | 53.71664 | -130.16684 | 35000 ft | 466 kts | 329° |
| 2026-04-25 11:48 | 53.77240 | -130.22221 | 35001 ft | 466 kts | 329° |
| 2026-04-25 11:48 | 53.82812 | -130.27774 | 35001 ft | 466 kts | 329° |
| 2026-04-25 11:49 | 53.88382 | -130.33342 | 35001 ft | 466 kts | 329° |
| 2026-04-25 11:49 | 53.93895 | -130.38870 | 35001 ft | 466 kts | 329° |
| 2026-04-25 11:50 | 53.99471 | -130.44478 | 35001 ft | 466 kts | 329° |
| 2026-04-25 11:50 | 54.05005 | -130.50061 | 35001 ft | 466 kts | 329° |
| 2026-04-25 11:51 | 54.10577 | -130.55699 | 35001 ft | 466 kts | 329° |
| 2026-04-25 11:51 | 54.16104 | -130.61311 | 35001 ft | 466 kts | 329° |
| 2026-04-25 11:52 | 54.21603 | -130.66911 | 35001 ft | 466 kts | 329° |
| 2026-04-25 11:52 | 54.27134 | -130.72562 | 35001 ft | 466 kts | 329° |
| 2026-04-25 11:53 | 54.32665 | -130.78230 | 35001 ft | 466 kts | 329° |
| 2026-04-25 11:53 | 54.38212 | -130.83934 | 35001 ft | 466 kts | 329° |
| 2026-04-25 11:54 | 54.43720 | -130.89615 | 35001 ft | 466 kts | 329° |
| 2026-04-25 11:55 | 54.52044 | -130.98235 | 35001 ft | 466 kts | 329° |
| 2026-04-25 11:55 | 54.57545 | -131.03954 | 35001 ft | 466 kts | 329° |
| 2026-04-25 11:56 | 54.62963 | -131.09880 | 35000 ft | 466 kts | 324° |
| 2026-04-25 11:56 | 54.68086 | -131.16725 | 35001 ft | 466 kts | 322° |
| 2026-04-25 11:57 | 54.73457 | -131.22861 | 35001 ft | 466 kts | 329° |
| 2026-04-25 11:57 | 54.78986 | -131.28705 | 35000 ft | 466 kts | 328° |
| 2026-04-25 11:58 | 54.84450 | -131.34560 | 35001 ft | 466 kts | 328° |
| 2026-04-25 11:58 | 54.89923 | -131.40428 | 35000 ft | 466 kts | 328° |
| 2026-04-25 11:59 | 54.95396 | -131.46313 | 35001 ft | 466 kts | 328° |
| 2026-04-25 11:59 | 55.00884 | -131.52231 | 35000 ft | 466 kts | 328° |
| 2026-04-25 12:00 | 55.09130 | -131.61050 | 35001 ft | 466 kts | 330° |
| 2026-04-25 12:01 | 55.17458 | -131.69568 | 35000 ft | 466 kts | 329° |
| 2026-04-25 12:01 | 55.23008 | -131.75295 | 35001 ft | 466 kts | 329° |
| 2026-04-25 12:02 | 55.31325 | -131.83917 | 35001 ft | 466 kts | 329° |
| 2026-04-25 12:02 | 55.36887 | -131.89710 | 35001 ft | 466 kts | 329° |
| 2026-04-25 12:03 | 55.42433 | -131.95505 | 35001 ft | 466 kts | 329° |
| 2026-04-25 12:03 | 55.47996 | -132.01338 | 35000 ft | 466 kts | 329° |
| 2026-04-25 12:04 | 55.53527 | -132.07156 | 35001 ft | 466 kts | 329° |
| 2026-04-25 12:04 | 55.59093 | -132.12973 | 35000 ft | 466 kts | 331° |
| 2026-04-25 12:05 | 55.64954 | -132.17581 | 34998 ft | 465 kts | 343° |
| 2026-04-25 12:05 | 55.71282 | -132.19786 | 35002 ft | 466 kts | 351° |
| 2026-04-25 12:06 | 55.77651 | -132.21777 | 35001 ft | 466 kts | 350° |
| 2026-04-25 12:06 | 55.84014 | -132.23787 | 35000 ft | 466 kts | 350° |
| 2026-04-25 12:07 | 55.90364 | -132.25777 | 35000 ft | 466 kts | 350° |
| 2026-04-25 12:07 | 55.96720 | -132.27765 | 35000 ft | 466 kts | 350° |
| 2026-04-25 12:08 | 56.03075 | -132.29753 | 35000 ft | 466 kts | 350° |
| 2026-04-25 12:08 | 56.09432 | -132.31746 | 35000 ft | 466 kts | 350° |
| 2026-04-25 12:09 | 56.15756 | -132.33731 | 35000 ft | 466 kts | 350° |
| 2026-04-25 12:09 | 56.22108 | -132.35733 | 35000 ft | 466 kts | 350° |
| 2026-04-25 12:10 | 56.28473 | -132.37746 | 35000 ft | 466 kts | 350° |
| 2026-04-25 12:10 | 56.34839 | -132.39763 | 35000 ft | 466 kts | 350° |
| 2026-04-25 12:11 | 56.41180 | -132.41850 | 35000 ft | 466 kts | 348° |
| 2026-04-25 12:11 | 56.47349 | -132.45177 | 34999 ft | 466 kts | 337° |
| 2026-04-25 12:12 | 56.53187 | -132.50153 | 35001 ft | 466 kts | 334° |
| 2026-04-25 12:12 | 56.58982 | -132.55240 | 35001 ft | 466 kts | 334° |
| 2026-04-25 12:13 | 56.64743 | -132.60588 | 34999 ft | 465 kts | 329° |
| 2026-04-25 12:13 | 56.70095 | -132.67197 | 35001 ft | 466 kts | 324° |
| 2026-04-25 12:14 | 56.75325 | -132.74011 | 35001 ft | 466 kts | 324° |
| 2026-04-25 12:14 | 56.80636 | -132.80692 | 34999 ft | 466 kts | 330° |
| 2026-04-25 12:15 | 56.86388 | -132.86084 | 35001 ft | 466 kts | 333° |
| 2026-04-25 12:15 | 56.92141 | -132.91330 | 35001 ft | 466 kts | 333° |
| 2026-04-25 12:16 | 56.97935 | -132.96550 | 35001 ft | 466 kts | 334° |
| 2026-04-25 12:16 | 57.03466 | -133.02519 | 35001 ft | 465 kts | 325° |
| 2026-04-25 12:17 | 57.08786 | -133.09337 | 35001 ft | 466 kts | 325° |
| 2026-04-25 12:17 | 57.14028 | -133.16078 | 35000 ft | 466 kts | 325° |
| 2026-04-25 12:18 | 57.19314 | -133.22937 | 35000 ft | 466 kts | 325° |
| 2026-04-25 12:18 | 57.24571 | -133.29799 | 35000 ft | 466 kts | 325° |
| 2026-04-25 12:19 | 57.32447 | -133.40143 | 35001 ft | 466 kts | 325° |
| 2026-04-25 12:20 | 57.37715 | -133.47096 | 35001 ft | 466 kts | 325° |
| 2026-04-25 12:20 | 57.42940 | -133.54021 | 35001 ft | 466 kts | 324° |
| 2026-04-25 12:21 | 57.48180 | -133.60992 | 35001 ft | 466 kts | 324° |
| 2026-04-25 12:21 | 57.53405 | -133.67969 | 35001 ft | 466 kts | 324° |
| 2026-04-25 12:22 | 57.58650 | -133.74999 | 35001 ft | 466 kts | 324° |
| 2026-04-25 12:22 | 57.63868 | -133.82016 | 35001 ft | 466 kts | 324° |
| 2026-04-25 12:23 | 57.69090 | -133.89066 | 35001 ft | 466 kts | 324° |
| 2026-04-25 12:23 | 57.74325 | -133.96158 | 35001 ft | 466 kts | 324° |
| 2026-04-25 12:24 | 57.79546 | -134.03256 | 35001 ft | 466 kts | 324° |
| 2026-04-25 12:24 | 57.84761 | -134.10375 | 35001 ft | 466 kts | 324° |
| 2026-04-25 12:25 | 57.89977 | -134.17519 | 35001 ft | 466 kts | 324° |
| 2026-04-25 12:25 | 57.95169 | -134.24657 | 35001 ft | 466 kts | 324° |
| 2026-04-25 12:26 | 58.00380 | -134.31847 | 35001 ft | 466 kts | 324° |
| 2026-04-25 12:26 | 58.05591 | -134.39062 | 35000 ft | 466 kts | 324° |
| 2026-04-25 12:27 | 58.10781 | -134.46275 | 35000 ft | 466 kts | 324° |
| 2026-04-25 12:27 | 58.15927 | -134.53580 | 35000 ft | 466 kts | 322° |
| 2026-04-25 12:28 | 58.20989 | -134.61202 | 35000 ft | 466 kts | 322° |
| 2026-04-25 12:28 | 58.26027 | -134.68776 | 35000 ft | 466 kts | 321° |
| 2026-04-25 12:29 | 58.31089 | -134.76356 | 35000 ft | 466 kts | 323° |
| 2026-04-25 12:29 | 58.36546 | -134.82886 | 35001 ft | 466 kts | 331° |
| 2026-04-25 12:30 | 58.42214 | -134.88788 | 35000 ft | 466 kts | 331° |
| 2026-04-25 12:30 | 58.47879 | -134.94665 | 35000 ft | 466 kts | 332° |
| 2026-04-25 12:31 | 58.53571 | -135.00461 | 35000 ft | 465 kts | 334° |
| 2026-04-25 12:31 | 58.59448 | -135.05525 | 35001 ft | 466 kts | 336° |
| 2026-04-25 12:32 | 58.65375 | -135.10460 | 34998 ft | 465 kts | 341° |
| 2026-04-25 12:32 | 58.71646 | -135.13254 | 35002 ft | 466 kts | 348° |
| 2026-04-25 12:32 | 58.74717 | -135.14996 | 34995 ft | 465 kts | 336° |
| 2026-04-25 12:33 | 58.77567 | -135.17850 | 35006 ft | 465 kts | 330° |
| 2026-04-25 12:33 | 58.82923 | -135.24748 | 35001 ft | 466 kts | 324° |
| 2026-04-25 12:34 | 58.88565 | -135.30670 | 35002 ft | 465 kts | 341° |
| 2026-04-25 12:34 | 58.94858 | -135.33525 | 34998 ft | 466 kts | 356° |
| 2026-04-25 12:35 | 59.01308 | -135.33997 | 35000 ft | 466 kts | 354° |
| 2026-04-25 12:35 | 59.07696 | -135.35690 | 35000 ft | 466 kts | 351° |
| 2026-04-25 12:36 | 59.13931 | -135.38719 | 35001 ft | 466 kts | 344° |
| 2026-04-25 12:36 | 59.20242 | -135.41203 | 35000 ft | 465 kts | 356° |
| 2026-04-25 12:37 | 59.26640 | -135.40768 | 35000 ft | 466 kts | 9° |
| 2026-04-25 12:37 | 59.32977 | -135.38315 | 35000 ft | 466 kts | 13° |
| 2026-04-25 12:38 | 59.39235 | -135.35097 | 35000 ft | 466 kts | 15° |
| 2026-04-25 12:38 | 59.45502 | -135.32359 | 34999 ft | 465 kts | 8° |
| 2026-04-25 12:39 | 59.51955 | -135.31079 | 35000 ft | 466 kts | 5° |
| 2026-04-25 12:39 | 59.58357 | -135.29961 | 35000 ft | 466 kts | 5° |
| 2026-04-25 12:40 | 59.64766 | -135.28912 | 35000 ft | 466 kts | 5° |
| 2026-04-25 12:40 | 59.71232 | -135.27893 | 35000 ft | 466 kts | 5° |
| 2026-04-25 12:41 | 59.77673 | -135.26967 | 35000 ft | 466 kts | 4° |
| 2026-04-25 12:41 | 59.84069 | -135.26076 | 35000 ft | 466 kts | 4° |
| 2026-04-25 12:42 | 59.90506 | -135.25180 | 35000 ft | 466 kts | 4° |
| 2026-04-25 12:42 | 59.96972 | -135.24278 | 35000 ft | 466 kts | 4° |
| 2026-04-25 12:43 | 60.03371 | -135.23384 | 35000 ft | 466 kts | 4° |
| 2026-04-25 12:43 | 60.13035 | -135.22029 | 35000 ft | 466 kts | 4° |
| 2026-04-25 12:44 | 60.19492 | -135.21120 | 35000 ft | 466 kts | 4° |
| 2026-04-25 12:45 | 60.29093 | -135.19762 | 35000 ft | 466 kts | 4° |
| 2026-04-25 12:45 | 60.38763 | -135.18387 | 35000 ft | 466 kts | 4° |
| 2026-04-25 12:46 | 60.45215 | -135.17464 | 34984 ft | 466 kts | 4° |
| 2026-04-25 12:46 | 60.48409 | -135.16675 | 34666 ft | 470 kts | 12° |
| 2026-04-25 12:46 | 60.51474 | -135.14561 | 34336 ft | 468 kts | 27° |
| 2026-04-25 12:47 | 60.54185 | -135.11031 | 34017 ft | 465 kts | 37° |
| 2026-04-25 12:47 | 60.56736 | -135.06975 | 33691 ft | 465 kts | 40° |
| 2026-04-25 12:47 | 60.58993 | -135.02414 | 33366 ft | 465 kts | 51° |
| 2026-04-25 12:47 | 60.60710 | -134.96858 | 33038 ft | 466 kts | 66° |
| 2026-04-25 12:48 | 60.61849 | -134.90706 | 32720 ft | 466 kts | 72° |
| 2026-04-25 12:48 | 60.62726 | -134.84329 | 32391 ft | 467 kts | 78° |
| 2026-04-25 12:48 | 60.63069 | -134.77867 | 32066 ft | 468 kts | 91° |
| 2026-04-25 12:48 | 60.62625 | -134.71272 | 31743 ft | 469 kts | 103° |
| 2026-04-25 12:49 | 60.61776 | -134.64879 | 31426 ft | 469 kts | 107° |
| 2026-04-25 12:49 | 60.60586 | -134.58757 | 31099 ft | 470 kts | 117° |
| 2026-04-25 12:49 | 60.58776 | -134.53346 | 30775 ft | 470 kts | 131° |
| 2026-04-25 12:49 | 60.56430 | -134.48735 | 30453 ft | 468 kts | 138° |
| 2026-04-25 12:50 | 60.53919 | -134.44594 | 30127 ft | 466 kts | 144° |
| 2026-04-25 12:50 | 60.51114 | -134.41376 | 29796 ft | 463 kts | 158° |
| 2026-04-25 12:50 | 60.48065 | -134.39665 | 29478 ft | 460 kts | 169° |
| 2026-04-25 12:50 | 60.44940 | -134.38675 | 29156 ft | 458 kts | 173° |
| 2026-04-25 12:51 | 60.41767 | -134.38394 | 28826 ft | 456 kts | 183° |
| 2026-04-25 12:51 | 60.38684 | -134.39572 | 28500 ft | 454 kts | 197° |
| 2026-04-25 12:51 | 60.35736 | -134.41823 | 28176 ft | 451 kts | 202° |
| 2026-04-25 12:51 | 60.32810 | -134.43997 | 27847 ft | 449 kts | 194° |
| 2026-04-25 12:52 | 60.29754 | -134.44762 | 27520 ft | 447 kts | 178° |
| 2026-04-25 12:52 | 60.26712 | -134.43793 | 27196 ft | 444 kts | 162° |
| 2026-04-25 12:52 | 60.23875 | -134.41595 | 26879 ft | 442 kts | 155° |
| 2026-04-25 12:52 | 60.21095 | -134.38950 | 26552 ft | 440 kts | 153° |
| 2026-04-25 12:53 | 60.18393 | -134.36212 | 26228 ft | 438 kts | 152° |
| 2026-04-25 12:53 | 60.15765 | -134.33203 | 25901 ft | 436 kts | 148° |
| 2026-04-25 12:53 | 60.13231 | -134.29843 | 25574 ft | 434 kts | 146° |
| 2026-04-25 12:53 | 60.10813 | -134.26408 | 25252 ft | 431 kts | 144° |
| 2026-04-25 12:54 | 60.08404 | -134.22875 | 24926 ft | 429 kts | 143° |
| 2026-04-25 12:54 | 60.06032 | -134.19301 | 24600 ft | 427 kts | 143° |
| 2026-04-25 12:54 | 60.03667 | -134.15665 | 24273 ft | 426 kts | 142° |
| 2026-04-25 12:54 | 60.01374 | -134.12080 | 23951 ft | 425 kts | 142° |
| 2026-04-25 12:55 | 59.99066 | -134.08435 | 23625 ft | 423 kts | 141° |
| 2026-04-25 12:55 | 59.97527 | -134.05989 | 23406 ft | 421 kts | 141° |
| 2026-04-25 12:55 | 59.94501 | -134.01163 | 22973 ft | 418 kts | 141° |
| 2026-04-25 12:55 | 59.92819 | -133.98471 | 22730 ft | 416 kts | 141° |
| 2026-04-25 12:56 | 59.90581 | -133.94882 | 22406 ft | 414 kts | 141° |
| 2026-04-25 12:56 | 59.88365 | -133.91325 | 22083 ft | 412 kts | 141° |
| 2026-04-25 12:56 | 59.86154 | -133.87775 | 21758 ft | 411 kts | 141° |
| 2026-04-25 12:56 | 59.83935 | -133.84213 | 21431 ft | 408 kts | 141° |
| 2026-04-25 12:57 | 59.81746 | -133.80701 | 21107 ft | 406 kts | 141° |
| 2026-04-25 12:57 | 59.79553 | -133.77185 | 20781 ft | 404 kts | 141° |
| 2026-04-25 12:57 | 59.77378 | -133.73702 | 20456 ft | 403 kts | 141° |
| 2026-04-25 12:57 | 59.75211 | -133.70236 | 20130 ft | 401 kts | 141° |
| 2026-04-25 12:58 | 59.73045 | -133.66777 | 19803 ft | 399 kts | 141° |
| 2026-04-25 12:58 | 59.70926 | -133.63397 | 19482 ft | 397 kts | 141° |
| 2026-04-25 12:58 | 59.68766 | -133.59958 | 19153 ft | 395 kts | 141° |
| 2026-04-25 12:58 | 59.66647 | -133.56589 | 18829 ft | 393 kts | 141° |
| 2026-04-25 12:59 | 59.64550 | -133.53259 | 18507 ft | 391 kts | 141° |
| 2026-04-25 12:59 | 59.62422 | -133.49886 | 18179 ft | 389 kts | 141° |
| 2026-04-25 12:59 | 59.60316 | -133.46555 | 17853 ft | 387 kts | 141° |
| 2026-04-25 12:59 | 59.58255 | -133.43297 | 17532 ft | 385 kts | 141° |
| 2026-04-25 13:00 | 59.56173 | -133.40013 | 17207 ft | 383 kts | 141° |
| 2026-04-25 13:00 | 59.54773 | -133.37807 | 16987 ft | 382 kts | 141° |
| 2026-04-25 13:00 | 59.52018 | -133.33475 | 16553 ft | 380 kts | 142° |
| 2026-04-25 13:00 | 59.49991 | -133.30293 | 16232 ft | 378 kts | 142° |
| 2026-04-25 13:01 | 59.47932 | -133.27066 | 15905 ft | 376 kts | 142° |
| 2026-04-25 13:01 | 59.45898 | -133.23885 | 15580 ft | 374 kts | 142° |
| 2026-04-25 13:01 | 59.43877 | -133.20726 | 15255 ft | 373 kts | 142° |
| 2026-04-25 13:01 | 59.41847 | -133.17560 | 14928 ft | 371 kts | 142° |
| 2026-04-25 13:02 | 59.39859 | -133.14464 | 14607 ft | 369 kts | 142° |
| 2026-04-25 13:02 | 59.37893 | -133.11230 | 14278 ft | 367 kts | 135° |
| 2026-04-25 13:02 | 59.36292 | -133.07420 | 13954 ft | 365 kts | 122° |
| 2026-04-25 13:02 | 59.35216 | -133.02986 | 13627 ft | 358 kts | 107° |
| 2026-04-25 13:03 | 59.34753 | -132.98292 | 13299 ft | 344 kts | 94° |
| 2026-04-25 13:03 | 59.34825 | -132.93723 | 12973 ft | 332 kts | 81° |
| 2026-04-25 13:03 | 59.35409 | -132.89442 | 12648 ft | 322 kts | 68° |
| 2026-04-25 13:03 | 59.36437 | -132.85635 | 12322 ft | 313 kts | 56° |
| 2026-04-25 13:04 | 59.37786 | -132.82420 | 11999 ft | 305 kts | 44° |
| 2026-04-25 13:04 | 59.39438 | -132.79872 | 11671 ft | 298 kts | 31° |
| 2026-04-25 13:04 | 59.41275 | -132.78073 | 11344 ft | 292 kts | 20° |
| 2026-04-25 13:04 | 59.43184 | -132.77045 | 11023 ft | 287 kts | 9° |
| 2026-04-25 13:05 | 59.45183 | -132.76785 | 10695 ft | 286 kts | 358° |
| 2026-04-25 13:05 | 59.47127 | -132.77272 | 10373 ft | 285 kts | 346° |
| 2026-04-25 13:05 | 59.48995 | -132.78499 | 10119 ft | 283 kts | 335° |
| 2026-04-25 13:05 | 59.50687 | -132.80388 | 9963 ft | 281 kts | 324° |
| 2026-04-25 13:06 | 59.52169 | -132.82883 | 9827 ft | 281 kts | 313° |
| 2026-04-25 13:06 | 59.53383 | -132.85906 | 9676 ft | 281 kts | 302° |
| 2026-04-25 13:06 | 59.54269 | -132.89278 | 9538 ft | 281 kts | 291° |
| 2026-04-25 13:06 | 59.54821 | -132.92976 | 9410 ft | 280 kts | 281° |
| 2026-04-25 13:07 | 59.55111 | -132.96767 | 9284 ft | 280 kts | 278° |
| 2026-04-25 13:07 | 59.55426 | -133.00522 | 9158 ft | 279 kts | 279° |
| 2026-04-25 13:07 | 59.55736 | -133.04266 | 9048 ft | 278 kts | 279° |
| 2026-04-25 13:07 | 59.56041 | -133.08052 | 8946 ft | 278 kts | 279° |
| 2026-04-25 13:08 | 59.56340 | -133.11786 | 8881 ft | 277 kts | 279° |
| 2026-04-25 13:08 | 59.56639 | -133.15543 | 8838 ft | 278 kts | 279° |
| 2026-04-25 13:08 | 59.56938 | -133.19282 | 8799 ft | 278 kts | 279° |
| 2026-04-25 13:08 | 59.57239 | -133.23053 | 8761 ft | 278 kts | 279° |
| 2026-04-25 13:09 | 59.57539 | -133.26793 | 8723 ft | 277 kts | 279° |
| 2026-04-25 13:09 | 59.57839 | -133.30533 | 8686 ft | 277 kts | 279° |
| 2026-04-25 13:09 | 59.58238 | -133.34209 | 8648 ft | 277 kts | 285° |
| 2026-04-25 13:09 | 59.58919 | -133.37759 | 8608 ft | 277 kts | 298° |
| 2026-04-25 13:10 | 59.59951 | -133.40948 | 8572 ft | 277 kts | 307° |
| 2026-04-25 13:10 | 59.61218 | -133.43788 | 8529 ft | 277 kts | 316° |
| 2026-04-25 13:10 | 59.62665 | -133.46266 | 8477 ft | 276 kts | 325° |
| 2026-04-25 13:10 | 59.64310 | -133.48235 | 8429 ft | 276 kts | 330° |
| 2026-04-25 13:11 | 59.65937 | -133.50270 | 8378 ft | 276 kts | 326° |
| 2026-04-25 13:11 | 59.67504 | -133.52418 | 8328 ft | 276 kts | 325° |
| 2026-04-25 13:11 | 59.69057 | -133.54591 | 8278 ft | 276 kts | 325° |
| 2026-04-25 13:11 | 59.70605 | -133.56787 | 8229 ft | 275 kts | 324° |
| 2026-04-25 13:12 | 59.72156 | -133.59003 | 8178 ft | 275 kts | 324° |
| 2026-04-25 13:12 | 59.73716 | -133.61241 | 8128 ft | 275 kts | 324° |
| 2026-04-25 13:12 | 59.75264 | -133.63469 | 8078 ft | 275 kts | 324° |
| 2026-04-25 13:12 | 59.76288 | -133.64946 | 8044 ft | 275 kts | 324° |
| 2026-04-25 13:13 | 59.78324 | -133.67886 | 7978 ft | 274 kts | 323° |
| 2026-04-25 13:13 | 59.79870 | -133.70123 | 7928 ft | 274 kts | 323° |
| 2026-04-25 13:13 | 59.81413 | -133.72359 | 7877 ft | 274 kts | 323° |
| 2026-04-25 13:13 | 59.82950 | -133.74587 | 7827 ft | 274 kts | 323° |
| 2026-04-25 13:14 | 59.84478 | -133.76805 | 7777 ft | 274 kts | 323° |
| 2026-04-25 13:14 | 59.86016 | -133.79042 | 7736 ft | 273 kts | 323° |
| 2026-04-25 13:14 | 59.87544 | -133.81265 | 7710 ft | 273 kts | 323° |
| 2026-04-25 13:14 | 59.89058 | -133.83472 | 7681 ft | 273 kts | 323° |
| 2026-04-25 13:15 | 59.90081 | -133.84964 | 7664 ft | 273 kts | 323° |
| 2026-04-25 13:15 | 59.92118 | -133.87938 | 7631 ft | 273 kts | 323° |
| 2026-04-25 13:15 | 59.93640 | -133.90164 | 7606 ft | 273 kts | 323° |
| 2026-04-25 13:15 | 59.95173 | -133.92406 | 7581 ft | 273 kts | 323° |
| 2026-04-25 13:16 | 59.96710 | -133.94661 | 7555 ft | 273 kts | 323° |
| 2026-04-25 13:16 | 59.98225 | -133.96884 | 7547 ft | 272 kts | 323° |
| 2026-04-25 13:16 | 59.99738 | -133.99107 | 7547 ft | 272 kts | 323° |
| 2026-04-25 13:16 | 60.01269 | -134.01358 | 7547 ft | 273 kts | 323° |
| 2026-04-25 13:17 | 60.02800 | -134.03613 | 7547 ft | 273 kts | 323° |
| 2026-04-25 13:17 | 60.04314 | -134.05847 | 7547 ft | 273 kts | 323° |
| 2026-04-25 13:17 | 60.05833 | -134.08089 | 7547 ft | 273 kts | 323° |
| 2026-04-25 13:17 | 60.07364 | -134.10352 | 7546 ft | 273 kts | 323° |
| 2026-04-25 13:18 | 60.08884 | -134.12599 | 7546 ft | 273 kts | 323° |
| 2026-04-25 13:18 | 60.10409 | -134.14857 | 7541 ft | 273 kts | 323° |
| 2026-04-25 13:18 | 60.11925 | -134.17104 | 7490 ft | 271 kts | 323° |
| 2026-04-25 13:18 | 60.13387 | -134.19270 | 7432 ft | 255 kts | 324° |
| 2026-04-25 13:19 | 60.14775 | -134.21317 | 7378 ft | 239 kts | 324° |
| 2026-04-25 13:19 | 60.16058 | -134.23218 | 7325 ft | 226 kts | 323° |
| 2026-04-25 13:19 | 60.17313 | -134.25090 | 7275 ft | 222 kts | 323° |
| 2026-04-25 13:19 | 60.18128 | -134.26312 | 7242 ft | 222 kts | 323° |
| 2026-04-25 13:20 | 60.19775 | -134.28784 | 7177 ft | 222 kts | 323° |
| 2026-04-25 13:20 | 60.21025 | -134.30655 | 7127 ft | 222 kts | 323° |
| 2026-04-25 13:20 | 60.22254 | -134.32494 | 7078 ft | 222 kts | 323° |
| 2026-04-25 13:20 | 60.23483 | -134.34334 | 7028 ft | 222 kts | 323° |
| 2026-04-25 13:21 | 60.24729 | -134.36202 | 6978 ft | 221 kts | 323° |
| 2026-04-25 13:21 | 60.25952 | -134.38036 | 6929 ft | 221 kts | 323° |
| 2026-04-25 13:21 | 60.27195 | -134.39902 | 6878 ft | 221 kts | 323° |
| 2026-04-25 13:21 | 60.28416 | -134.41736 | 6829 ft | 221 kts | 323° |
| 2026-04-25 13:22 | 60.29638 | -134.43573 | 6779 ft | 221 kts | 323° |
| 2026-04-25 13:22 | 60.30448 | -134.44841 | 6744 ft | 220 kts | 318° |
| 2026-04-25 13:22 | 60.31402 | -134.48367 | 6675 ft | 220 kts | 279° |
| 2026-04-25 13:23 | 60.31833 | -134.54495 | 6577 ft | 221 kts | 279° |
| 2026-04-25 13:23 | 60.32062 | -134.57535 | 6524 ft | 220 kts | 279° |
| 2026-04-25 13:23 | 60.32296 | -134.60594 | 6469 ft | 220 kts | 279° |
| 2026-04-25 13:23 | 60.32526 | -134.63600 | 6406 ft | 219 kts | 279° |
| 2026-04-25 13:24 | 60.32761 | -134.66650 | 6343 ft | 219 kts | 278° |
| 2026-04-25 13:24 | 60.32994 | -134.69687 | 6280 ft | 219 kts | 278° |
| 2026-04-25 13:24 | 60.33226 | -134.72719 | 6217 ft | 219 kts | 278° |
| 2026-04-25 13:24 | 60.33507 | -134.75723 | 6157 ft | 218 kts | 289° |
| 2026-04-25 13:25 | 60.34403 | -134.78117 | 6127 ft | 217 kts | 326° |
| 2026-04-25 13:25 | 60.35745 | -134.79474 | 6106 ft | 217 kts | 335° |
| 2026-04-25 13:25 | 60.37049 | -134.80739 | 6068 ft | 200 kts | 335° |
| 2026-04-25 13:25 | 60.38281 | -134.81795 | 6022 ft | 185 kts | 338° |
| 2026-04-25 13:26 | 60.39428 | -134.82713 | 5985 ft | 169 kts | 339° |
| 2026-04-25 13:26 | 60.40493 | -134.83540 | 5949 ft | 163 kts | 339° |
| 2026-04-25 13:26 | 60.41554 | -134.84351 | 5917 ft | 164 kts | 339° |
| 2026-04-25 13:26 | 60.42609 | -134.85152 | 5880 ft | 164 kts | 339° |
| 2026-04-25 13:27 | 60.43684 | -134.85965 | 5836 ft | 163 kts | 339° |
| 2026-04-25 13:27 | 60.44748 | -134.86769 | 5799 ft | 163 kts | 339° |
| 2026-04-25 13:27 | 60.45807 | -134.87567 | 5757 ft | 163 kts | 339° |
| 2026-04-25 13:27 | 60.46878 | -134.88376 | 5712 ft | 162 kts | 339° |
| 2026-04-25 13:28 | 60.47921 | -134.89163 | 5684 ft | 163 kts | 339° |
| 2026-04-25 13:28 | 60.48630 | -134.89697 | 5654 ft | 162 kts | 339° |
| 2026-04-25 13:28 | 60.50039 | -134.90762 | 5600 ft | 162 kts | 339° |
| 2026-04-25 13:28 | 60.51100 | -134.91568 | 5561 ft | 162 kts | 339° |
| 2026-04-25 13:29 | 60.52156 | -134.92368 | 5520 ft | 162 kts | 339° |
| 2026-04-25 13:29 | 60.53192 | -134.93155 | 5463 ft | 150 kts | 339° |
| 2026-04-25 13:29 | 60.54104 | -134.93848 | 5374 ft | 133 kts | 339° |
| 2026-04-25 13:30 | 60.55797 | -134.95136 | 5326 ft | 134 kts | 339° |
| 2026-04-25 13:30 | 60.56665 | -134.95796 | 5062 ft | 130 kts | 339° |
| 2026-04-25 13:30 | 60.57500 | -134.96433 | 4916 ft | 128 kts | 339° |
| 2026-04-25 13:31 | 60.59180 | -134.97713 | 4541 ft | 129 kts | 339° |
| 2026-04-25 13:31 | 60.60015 | -134.98349 | 4394 ft | 128 kts | 339° |
| 2026-04-25 13:31 | 60.60852 | -134.98988 | 4213 ft | 129 kts | 339° |
| 2026-04-25 13:31 | 60.61692 | -134.99628 | 4028 ft | 128 kts | 339° |
| 2026-04-25 13:32 | 60.62522 | -135.00264 | 3856 ft | 128 kts | 339° |
| 2026-04-25 13:32 | 60.63349 | -135.00897 | 3682 ft | 127 kts | 339° |
| 2026-04-25 13:32 | 60.64172 | -135.01527 | 3510 ft | 127 kts | 339° |
| 2026-04-25 13:32 | 60.64999 | -135.02161 | 3338 ft | 127 kts | 339° |
| 2026-04-25 13:33 | 60.65830 | -135.02797 | 3165 ft | 127 kts | 339° |
| 2026-04-25 13:33 | 60.66647 | -135.03422 | 2995 ft | 126 kts | 339° |
| 2026-04-25 13:33 | 60.67471 | -135.04053 | 2825 ft | 126 kts | 339° |
| 2026-04-25 13:33 | 60.68006 | -135.04465 | 2714 ft | 125 kts | 339° |
| 2026-04-25 13:34 | 60.69098 | -135.05302 | 2499 ft | 125 kts | 339° |
| 2026-04-25 13:34 | 60.69912 | -135.05928 | 2332 ft | 125 kts | 339° |
| 2026-04-25 13:34 | 60.70520 | -135.06389 | 2332 ft | 61 kts | 339° |
| 2026-04-25 13:34 | 60.70775 | -135.06586 | 2324 ft | 18 kts | 339° |
| 2026-04-25 13:35 | 60.70853 | -135.06650 | 2319 ft | 18 kts | 338° |
| 2026-04-25 13:35 | 60.71003 | -135.06769 | 2308 ft | 16 kts | 339° |
| 2026-04-25 13:35 | 60.71120 | -135.06862 | 2300 ft | 19 kts | 338° |
| 2026-04-25 13:35 | 60.71236 | -135.06953 | 2291 ft | 10 kts | 339° |
| 2026-04-25 13:36 | 60.71273 | -135.07050 | 2291 ft | 7 kts | 247° |
| 2026-04-25 13:36 | 60.71263 | -135.07074 | 2293 ft | 0 kts | 223° |